Time;durP1;ratioP1;P1;durP2;ratioP2;P2;SDS_P1;SDS_P2;PMS_P1;PMS_P2;Temp;Humidity;BMP_temperature;BMP_pressure;BME280_temperature;BME280_humidity;BME280_pressure;Samples;Min_cycle;Max_cycle;Signal;HPM_P1;HPM_P2
2023/07/07 00:02:13;;;;;;;;;;;22.60;70.90;;;;;;5007195;28;92200;-47
2023/07/07 00:04:39;;;;;;;;;;;22.50;70.90;;;;;;5004515;28;95030;-45
2023/07/07 00:07:05;;;;;;;;;;;22.50;70.90;;;;;;5008072;28;94364;-45
2023/07/07 00:09:30;;;;;;;;;;;22.60;71.00;;;;;;5011312;28;92255;-48
2023/07/07 00:11:57;;;;;;;;;;;22.50;70.90;;;;;;5009170;28;93523;-45
2023/07/07 00:14:22;;;;;;;;;;;22.60;71.00;;;;;;5009744;28;92146;-47
2023/07/07 00:16:48;;;;;;;;;;;22.50;71.00;;;;;;5007573;28;92497;-46
2023/07/07 00:19:13;;;;;;;;;;;22.50;71.00;;;;;;5004804;28;94194;-48
2023/07/07 00:21:40;;;;;;;;;;;22.50;71.00;;;;;;5006052;28;92189;-47
2023/07/07 00:24:07;;;;;;;;;;;22.50;71.00;;;;;;5008370;28;93650;-50
2023/07/07 00:26:32;;;;;;;;;;;22.50;70.90;;;;;;5009628;28;93104;-47
2023/07/07 00:28:58;;;;;;;;;;;22.50;71.00;;;;;;5010541;28;92286;-49
2023/07/07 00:31:24;;;;;;;;;;;22.40;70.90;;;;;;5008983;28;93002;-49
2023/07/07 00:33:49;;;;;;;;;;;22.40;70.90;;;;;;5006992;28;92621;-48
2023/07/07 00:36:15;;;;;;;;;;;22.40;70.90;;;;;;5009507;28;94070;-50
2023/07/07 00:38:40;;;;;;;;;;;22.40;70.90;;;;;;5005486;28;94680;-45
2023/07/07 00:41:06;;;;;;;;;;;22.40;70.90;;;;;;5009335;28;92172;-45
2023/07/07 00:43:32;;;;;;;;;;;22.40;70.90;;;;;;5007448;28;94879;-45
2023/07/07 00:45:58;;;;;;;;;;;22.40;70.90;;;;;;5007598;28;92656;-45
2023/07/07 00:48:32;;;;;;;;;;;22.40;70.90;;;;;;5004087;28;92212;-44
2023/07/07 00:51:00;;;;;;;;;;;22.40;71.00;;;;;;5009993;28;92515;-44
2023/07/07 00:53:26;;;;;;;;;;;22.30;71.00;;;;;;5006261;28;92421;-45
2023/07/07 00:55:55;;;;;;;;;;;22.30;71.00;;;;;;5009520;28;93017;-45
2023/07/07 00:58:21;;;;;;;;;;;22.30;71.00;;;;;;5006368;28;92851;-45
2023/07/07 01:00:49;;;;;;;;;;;22.30;71.00;;;;;;5007715;28;91457;-49
2023/07/07 01:03:19;;;;;;;;;;;22.30;70.90;;;;;;5008308;28;92081;-44
2023/07/07 01:05:45;;;;;;;;;;;22.30;71.00;;;;;;5004910;28;93051;-47
2023/07/07 01:08:11;;;;;;;;;;;22.20;70.90;;;;;;5004953;28;93357;-44
2023/07/07 01:10:37;;;;;;;;;;;22.20;71.00;;;;;;5006562;28;93389;-44
2023/07/07 01:13:04;;;;;;;;;;;22.20;71.00;;;;;;5011637;28;93173;-46
2023/07/07 01:15:32;;;;;;;;;;;22.20;71.00;;;;;;5002553;28;92437;-47
2023/07/07 01:18:09;;;;;;;;;;;22.20;70.90;;;;;;5007411;28;93140;-44
2023/07/07 01:20:46;;;;;;;;;;;22.20;70.90;;;;;;5002952;28;93053;-47
2023/07/07 01:23:24;;;;;;;;;;;22.20;71.00;;;;;;5008354;28;92048;-47
2023/07/07 01:25:50;;;;;;;;;;;22.20;71.00;;;;;;5004799;28;91987;-44
2023/07/07 01:28:22;;;;;;;;;;;22.20;71.00;;;;;;5007680;28;92096;-44
2023/07/07 01:30:51;;;;;;;;;;;22.10;70.90;;;;;;5010570;28;92583;-45
2023/07/07 01:33:19;;;;;;;;;;;22.10;70.90;;;;;;5009454;28;95941;-45
2023/07/07 01:35:45;;;;;;;;;;;22.10;70.90;;;;;;5012722;28;92526;-46
2023/07/07 01:38:30;;;;;;;;;;;22.10;70.90;;;;;;5008075;28;93358;-46
2023/07/07 01:41:16;;;;;;;;;;;22.10;70.90;;;;;;5008825;28;92224;-48
2023/07/07 01:44:08;;;;;;;;;;;22.10;70.90;;;;;;5000447;28;92369;-45
2023/07/07 01:46:39;;;;;;;;;;;22.10;71.00;;;;;;5011969;28;93196;-46
2023/07/07 01:49:11;;;;;;;;;;;22.00;70.90;;;;;;5008443;28;92174;-45
2023/07/07 01:51:42;;;;;;;;;;;22.00;70.90;;;;;;5010611;28;96073;-47
2023/07/07 01:54:09;;;;;;;;;;;22.00;70.90;;;;;;5007947;28;92935;-45
2023/07/07 01:56:35;;;;;;;;;;;22.00;71.00;;;;;;5011122;28;92435;-45
2023/07/07 01:59:01;;;;;;;;;;;22.00;71.00;;;;;;5014265;28;92996;-45
2023/07/07 02:01:28;;;;;;;;;;;22.00;71.00;;;;;;5009543;28;92365;-44
2023/07/07 02:03:53;;;;;;;;;;;22.00;70.90;;;;;;5012035;28;94271;-45
2023/07/07 02:06:18;;;;;;;;;;;22.00;70.90;;;;;;5007477;28;92689;-44
2023/07/07 02:08:44;;;;;;;;;;;22.00;70.90;;;;;;5011718;28;92228;-47
2023/07/07 02:11:10;;;;;;;;;;;21.90;70.90;;;;;;5008048;28;93657;-45
2023/07/07 02:13:36;;;;;;;;;;;21.90;71.00;;;;;;5005290;28;93408;-45
2023/07/07 02:16:02;;;;;;;;;;;21.90;70.90;;;;;;5010838;28;91457;-45
2023/07/07 02:18:27;;;;;;;;;;;21.90;71.00;;;;;;5011211;28;92132;-45
2023/07/07 02:20:53;;;;;;;;;;;21.90;70.90;;;;;;5012966;28;93213;-44
2023/07/07 02:23:18;;;;;;;;;;;21.90;70.90;;;;;;5007607;28;93617;-45
2023/07/07 02:25:44;;;;;;;;;;;21.90;71.00;;;;;;5011238;28;92296;-45
2023/07/07 02:28:09;;;;;;;;;;;21.90;70.90;;;;;;5010533;28;92110;-44
2023/07/07 02:30:35;;;;;;;;;;;21.80;70.90;;;;;;5010225;28;92521;-44
2023/07/07 02:33:00;;;;;;;;;;;21.80;70.90;;;;;;5011819;28;93229;-45
2023/07/07 02:35:26;;;;;;;;;;;21.80;70.90;;;;;;5007029;28;92258;-45
2023/07/07 02:37:51;;;;;;;;;;;21.70;71.00;;;;;;5009249;28;92610;-46
2023/07/07 02:40:17;;;;;;;;;;;21.80;70.90;;;;;;5012941;28;92486;-46
2023/07/07 02:42:43;;;;;;;;;;;21.80;71.00;;;;;;5010814;28;92012;-44
2023/07/07 02:45:08;;;;;;;;;;;21.80;71.00;;;;;;5008211;28;93418;-46
2023/07/07 02:47:34;;;;;;;;;;;21.70;71.00;;;;;;5011078;28;93118;-45
2023/07/07 02:49:59;;;;;;;;;;;21.70;71.60;;;;;;5007241;28;93394;-45
2023/07/07 02:52:26;;;;;;;;;;;21.70;71.60;;;;;;5009638;28;93145;-46
2023/07/07 02:54:51;;;;;;;;;;;21.70;71.00;;;;;;5011047;28;92335;-45
2023/07/07 02:57:17;;;;;;;;;;;21.70;71.00;;;;;;5008564;28;93699;-45
2023/07/07 02:59:42;;;;;;;;;;;21.60;71.00;;;;;;5010392;28;93797;-45
2023/07/07 03:02:08;;;;;;;;;;;21.60;71.00;;;;;;5013230;28;92474;-45
2023/07/07 03:04:33;;;;;;;;;;;21.70;71.10;;;;;;5009386;28;92035;-45
2023/07/07 03:06:59;;;;;;;;;;;21.60;71.10;;;;;;5009737;28;92239;-45
2023/07/07 03:09:24;;;;;;;;;;;21.70;71.10;;;;;;5006569;28;92420;-45
2023/07/07 03:11:50;;;;;;;;;;;21.60;71.00;;;;;;5005520;28;94028;-46
2023/07/07 03:14:19;;;;;;;;;;;21.60;71.00;;;;;;5000974;28;92043;-45
2023/07/07 03:16:51;;;;;;;;;;;21.60;71.00;;;;;;5004323;28;92541;-45
2023/07/07 03:19:17;;;;;;;;;;;21.60;71.10;;;;;;5004959;28;93307;-45
2023/07/07 03:21:42;;;;;;;;;;;21.60;71.10;;;;;;5010414;28;92120;-45
2023/07/07 03:24:08;;;;;;;;;;;21.50;71.00;;;;;;5010348;28;92565;-47
2023/07/07 03:26:33;;;;;;;;;;;21.60;71.00;;;;;;4998429;28;92635;-47
2023/07/07 03:28:59;;;;;;;;;;;21.60;71.10;;;;;;5002409;28;91982;-47
2023/07/07 03:31:26;;;;;;;;;;;21.50;71.00;;;;;;5008674;28;94740;-45
2023/07/07 03:33:53;;;;;;;;;;;21.60;71.00;;;;;;5010640;28;92160;-44
2023/07/07 03:36:23;;;;;;;;;;;21.60;71.00;;;;;;5002305;28;93100;-45
2023/07/07 03:38:49;;;;;;;;;;;21.50;71.00;;;;;;4997309;28;93067;-45
2023/07/07 03:41:17;;;;;;;;;;;21.50;71.00;;;;;;5009755;28;92258;-46
2023/07/07 03:43:45;;;;;;;;;;;21.50;71.00;;;;;;5006296;28;92085;-45
2023/07/07 03:46:14;;;;;;;;;;;21.50;71.00;;;;;;5005522;28;93012;-45
2023/07/07 03:48:40;;;;;;;;;;;21.50;71.00;;;;;;5000842;28;92553;-46
2023/07/07 03:51:06;;;;;;;;;;;21.50;71.10;;;;;;5007317;28;95167;-44
2023/07/07 03:53:32;;;;;;;;;;;21.50;71.00;;;;;;5005973;28;91457;-47
2023/07/07 03:55:58;;;;;;;;;;;21.40;71.00;;;;;;4999242;28;93783;-47
2023/07/07 03:58:24;;;;;;;;;;;21.50;71.00;;;;;;5003970;28;93178;-46
2023/07/07 04:00:50;;;;;;;;;;;21.40;71.00;;;;;;5009634;28;93146;-47
2023/07/07 04:03:16;;;;;;;;;;;21.40;71.00;;;;;;5007972;28;94905;-45
2023/07/07 04:05:43;;;;;;;;;;;21.40;71.10;;;;;;5001461;28;93054;-47
2023/07/07 04:08:08;;;;;;;;;;;21.40;71.10;;;;;;5004463;28;92105;-45
2023/07/07 04:10:34;;;;;;;;;;;21.40;71.10;;;;;;5009337;28;92226;-46
2023/07/07 04:12:59;;;;;;;;;;;21.40;71.20;;;;;;5003881;28;92144;-46
2023/07/07 04:15:25;;;;;;;;;;;21.40;71.30;;;;;;5000105;28;92367;-48
2023/07/07 04:17:50;;;;;;;;;;;21.40;71.20;;;;;;5006813;28;92533;-45
2023/07/07 04:20:16;;;;;;;;;;;21.40;71.20;;;;;;5009214;28;92217;-48
2023/07/07 04:22:41;;;;;;;;;;;21.30;71.30;;;;;;5003514;28;93001;-48
2023/07/07 04:25:11;;;;;;;;;;;21.30;71.30;;;;;;4994992;28;94119;-48
2023/07/07 04:27:37;;;;;;;;;;;21.30;71.20;;;;;;5004215;28;92760;-49
2023/07/07 04:30:03;;;;;;;;;;;21.30;71.80;;;;;;5011698;28;92614;-50
2023/07/07 04:32:29;;;;;;;;;;;21.30;71.20;;;;;;4999153;28;92205;-49
2023/07/07 04:34:54;;;;;;;;;;;21.30;71.30;;;;;;4998848;28;92361;-50
2023/07/07 04:37:20;;;;;;;;;;;21.30;71.30;;;;;;5009340;28;93513;-48
2023/07/07 04:39:45;;;;;;;;;;;21.30;71.20;;;;;;5008931;28;92155;-46
2023/07/07 04:42:11;;;;;;;;;;;21.30;71.40;;;;;;5004426;28;92571;-48
2023/07/07 04:44:37;;;;;;;;;;;21.20;71.90;;;;;;5002327;28;93232;-50
2023/07/07 04:47:04;;;;;;;;;;;21.30;71.40;;;;;;5003704;28;92174;-50
2023/07/07 04:49:29;;;;;;;;;;;21.20;71.40;;;;;;5008590;28;93312;-50
2023/07/07 04:51:55;;;;;;;;;;;21.20;71.50;;;;;;5003771;28;92233;-49
2023/07/07 04:54:20;;;;;;;;;;;21.20;71.50;;;;;;5005198;28;92961;-45
2023/07/07 04:56:46;;;;;;;;;;;21.20;71.50;;;;;;5006465;28;93085;-45
2023/07/07 04:59:11;;;;;;;;;;;21.20;71.40;;;;;;5005647;28;92232;-46
2023/07/07 05:01:37;;;;;;;;;;;21.20;71.50;;;;;;4996541;28;92474;-45
2023/07/07 05:04:03;;;;;;;;;;;21.20;71.50;;;;;;5001996;28;93138;-44
2023/07/07 05:06:30;;;;;;;;;;;21.20;71.40;;;;;;5012011;28;92469;-45
2023/07/07 05:08:56;;;;;;;;;;;21.20;71.50;;;;;;5008098;28;92171;-44
2023/07/07 05:11:22;;;;;;;;;;;21.20;71.50;;;;;;5007672;28;93882;-44
2023/07/07 05:13:49;;;;;;;;;;;21.20;71.60;;;;;;5007404;28;93208;-45
2023/07/07 05:16:16;;;;;;;;;;;21.20;71.60;;;;;;5009732;28;93292;-45
2023/07/07 05:18:41;;;;;;;;;;;21.20;71.60;;;;;;5011191;28;94095;-45
2023/07/07 05:21:08;;;;;;;;;;;21.20;71.70;;;;;;5007747;28;93002;-45
2023/07/07 05:23:34;;;;;;;;;;;21.10;71.70;;;;;;5009339;28;94387;-45
2023/07/07 05:26:00;;;;;;;;;;;21.10;71.70;;;;;;5008879;28;92215;-45
2023/07/07 05:28:26;;;;;;;;;;;21.10;71.70;;;;;;5003500;28;93967;-45
2023/07/07 05:30:51;;;;;;;;;;;21.10;71.70;;;;;;5002867;28;92822;-45
2023/07/07 05:33:17;;;;;;;;;;;21.10;71.70;;;;;;5012329;28;92155;-45
2023/07/07 05:35:49;;;;;;;;;;;21.20;71.70;;;;;;5009958;28;93197;-45
2023/07/07 05:38:16;;;;;;;;;;;21.10;71.60;;;;;;4998839;28;93891;-45
2023/07/07 05:40:45;;;;;;;;;;;21.10;71.70;;;;;;5004147;28;94870;-45
2023/07/07 05:43:14;;;;;;;;;;;21.10;71.70;;;;;;5000877;28;94450;-45
2023/07/07 05:45:40;;;;;;;;;;;21.10;71.70;;;;;;5006784;28;92211;-45
2023/07/07 05:48:05;;;;;;;;;;;21.10;71.70;;;;;;5011018;28;93922;-44
2023/07/07 05:50:31;;;;;;;;;;;21.10;71.70;;;;;;5000247;28;92957;-44
2023/07/07 05:52:57;;;;;;;;;;;21.10;71.70;;;;;;5008557;28;92281;-45
2023/07/07 05:55:28;;;;;;;;;;;21.10;71.70;;;;;;5012261;28;92341;-44
2023/07/07 05:57:54;;;;;;;;;;;21.10;71.70;;;;;;5003183;27;92093;-45
2023/07/07 06:00:19;;;;;;;;;;;21.10;71.80;;;;;;5007298;28;92482;-45
2023/07/07 06:02:45;;;;;;;;;;;21.10;71.70;;;;;;5007380;28;94462;-44
2023/07/07 06:05:10;;;;;;;;;;;21.10;71.80;;;;;;5012292;28;92562;-44
2023/07/07 06:07:36;;;;;;;;;;;21.10;71.80;;;;;;5005673;28;92213;-48
2023/07/07 06:10:02;;;;;;;;;;;21.10;71.70;;;;;;5002211;28;93241;-44
2023/07/07 06:12:28;;;;;;;;;;;21.10;71.70;;;;;;5008597;28;92115;-45
2023/07/07 06:14:53;;;;;;;;;;;21.10;71.80;;;;;;5013420;28;92603;-46
2023/07/07 06:17:19;;;;;;;;;;;21.10;71.70;;;;;;4992240;28;92652;-45
2023/07/07 06:19:44;;;;;;;;;;;21.10;71.70;;;;;;5000643;28;92582;-45
2023/07/07 06:22:10;;;;;;;;;;;21.10;71.80;;;;;;5010819;28;93129;-44
2023/07/07 06:24:35;;;;;;;;;;;21.10;71.80;;;;;;5010129;28;93029;-44
2023/07/07 06:27:01;;;;;;;;;;;21.10;71.80;;;;;;5003934;28;93261;-45
2023/07/07 06:29:26;;;;;;;;;;;21.10;71.80;;;;;;4998897;28;93057;-45
2023/07/07 06:31:52;;;;;;;;;;;21.00;71.80;;;;;;5010325;28;92188;-45
2023/07/07 06:34:17;;;;;;;;;;;21.10;71.80;;;;;;5010781;28;92142;-44
2023/07/07 06:36:43;;;;;;;;;;;21.10;71.70;;;;;;4994222;28;93091;-45
2023/07/07 06:39:08;;;;;;;;;;;21.10;71.60;;;;;;5010438;28;92375;-45
2023/07/07 06:41:34;;;;;;;;;;;21.10;71.60;;;;;;5008541;28;92753;-44
2023/07/07 06:43:59;;;;;;;;;;;21.10;71.60;;;;;;5007595;28;91757;-45
2023/07/07 06:46:25;;;;;;;;;;;21.10;71.60;;;;;;5002579;28;92213;-45
2023/07/07 06:48:51;;;;;;;;;;;21.10;71.60;;;;;;5005233;28;92210;-45
2023/07/07 06:51:18;;;;;;;;;;;21.10;71.60;;;;;;5010492;28;93183;-44
2023/07/07 06:53:44;;;;;;;;;;;21.20;71.70;;;;;;5006671;28;94611;-46
2023/07/07 06:56:09;;;;;;;;;;;21.20;72.30;;;;;;4999565;28;95181;-44
2023/07/07 06:58:36;;;;;;;;;;;21.20;71.70;;;;;;5003468;28;92358;-44
2023/07/07 07:01:01;;;;;;;;;;;21.20;71.70;;;;;;5010279;28;94496;-44
2023/07/07 07:03:27;;;;;;;;;;;21.20;71.70;;;;;;5006200;28;92310;-47
2023/07/07 07:05:53;;;;;;;;;;;21.20;71.70;;;;;;5000915;28;92416;-44
2023/07/07 07:08:19;;;;;;;;;;;21.20;71.80;;;;;;5007954;28;92452;-45
2023/07/07 07:10:44;;;;;;;;;;;21.20;71.80;;;;;;5008612;28;92505;-44
2023/07/07 07:13:10;;;;;;;;;;;21.10;71.80;;;;;;5005512;28;92443;-45
2023/07/07 07:15:35;;;;;;;;;;;21.10;71.80;;;;;;5007409;28;94103;-45
2023/07/07 07:18:01;;;;;;;;;;;21.10;71.80;;;;;;5006338;28;92183;-46
2023/07/07 07:20:26;;;;;;;;;;;21.20;71.80;;;;;;5010829;28;92721;-44
2023/07/07 07:22:52;;;;;;;;;;;21.20;71.80;;;;;;4999257;28;92323;-44
2023/07/07 07:25:17;;;;;;;;;;;21.20;71.70;;;;;;5002366;28;92381;-44
2023/07/07 07:27:43;;;;;;;;;;;21.20;71.70;;;;;;5006540;28;93264;-44
2023/07/07 07:30:08;;;;;;;;;;;21.20;71.70;;;;;;5011275;28;92435;-45
2023/07/07 07:32:34;;;;;;;;;;;21.20;71.70;;;;;;5002882;28;92639;-44
2023/07/07 07:35:00;;;;;;;;;;;21.30;71.80;;;;;;4995987;28;93454;-44
2023/07/07 07:37:25;;;;;;;;;;;21.20;71.60;;;;;;5007340;28;92438;-45
2023/07/07 07:39:51;;;;;;;;;;;21.20;71.80;;;;;;5008038;28;93149;-44
2023/07/07 07:42:16;;;;;;;;;;;21.30;72.00;;;;;;5006503;28;93106;-46
2023/07/07 07:44:42;;;;;;;;;;;21.30;71.80;;;;;;4997607;28;92196;-44
2023/07/07 07:47:08;;;;;;;;;;;21.30;71.80;;;;;;5008148;28;93396;-45
2023/07/07 07:49:34;;;;;;;;;;;21.30;71.80;;;;;;5005563;28;92913;-44
2023/07/07 07:51:59;;;;;;;;;;;21.30;71.80;;;;;;5004393;28;92404;-45
2023/07/07 07:54:25;;;;;;;;;;;21.30;71.80;;;;;;5000453;28;94483;-44
2023/07/07 07:56:50;;;;;;;;;;;21.20;71.70;;;;;;5009745;28;91985;-45
2023/07/07 07:59:16;;;;;;;;;;;21.20;71.70;;;;;;5006403;28;93272;-46
2023/07/07 08:01:41;;;;;;;;;;;21.20;71.70;;;;;;4999625;28;93316;-45
2023/07/07 08:04:07;;;;;;;;;;;21.20;71.70;;;;;;5006692;28;93396;-45
2023/07/07 08:06:33;;;;;;;;;;;21.20;71.60;;;;;;5006596;28;93070;-44
2023/07/07 08:08:59;;;;;;;;;;;21.20;71.70;;;;;;5002735;28;92200;-45
2023/07/07 08:11:42;;;;;;;;;;;21.30;71.70;;;;;;5003304;28;92757;-46
2023/07/07 08:14:21;;;;;;;;;;;21.30;71.80;;;;;;5006333;28;93164;-46
2023/07/07 08:16:46;;;;;;;;;;;21.20;71.70;;;;;;5003952;28;92645;-46
2023/07/07 08:19:12;;;;;;;;;;;21.20;71.90;;;;;;5008401;28;93790;-46
2023/07/07 08:21:38;;;;;;;;;;;21.20;71.90;;;;;;5000500;28;92521;-45
2023/07/07 08:24:05;;;;;;;;;;;21.20;72.00;;;;;;5004023;28;92468;-45
2023/07/07 08:26:31;;;;;;;;;;;21.30;72.00;;;;;;5004606;28;93974;-44
2023/07/07 08:28:56;;;;;;;;;;;21.30;72.10;;;;;;5007386;28;93482;-47
2023/07/07 08:31:22;;;;;;;;;;;21.20;72.00;;;;;;5008692;28;93435;-48
2023/07/07 08:33:47;;;;;;;;;;;21.30;72.70;;;;;;5006658;28;93046;-48
2023/07/07 08:36:13;;;;;;;;;;;21.30;72.10;;;;;;5010013;28;92392;-46
2023/07/07 08:38:38;;;;;;;;;;;21.30;72.10;;;;;;5007460;28;92549;-47
2023/07/07 08:41:04;;;;;;;;;;;21.30;72.20;;;;;;5001249;28;93404;-47
2023/07/07 08:43:30;;;;;;;;;;;21.30;72.60;;;;;;5003933;28;92509;-48
2023/07/07 08:46:00;;;;;;;;;;;21.30;72.50;;;;;;5013025;28;93534;-48
2023/07/07 08:48:37;;;;;;;;;;;21.30;72.30;;;;;;5004672;28;92033;-45
2023/07/07 08:51:07;;;;;;;;;;;21.30;72.40;;;;;;5005959;28;92458;-48
2023/07/07 08:53:51;;;;;;;;;;;21.30;72.80;;;;;;5002571;28;93055;-47
2023/07/07 08:56:19;;;;;;;;;;;21.30;73.00;;;;;;4999562;28;92240;-46
2023/07/07 08:58:51;;;;;;;;;;;21.30;73.00;;;;;;5006168;28;92378;-46
2023/07/07 09:01:26;;;;;;;;;;;21.30;73.10;;;;;;5006431;28;93252;-49
2023/07/07 09:04:02;;;;;;;;;;;21.40;72.90;;;;;;5005692;28;92124;-50
2023/07/07 09:06:52;;;;;;;;;;;21.40;72.70;;;;;;5007099;28;92398;-46
2023/07/07 09:09:18;;;;;;;;;;;21.40;72.90;;;;;;5005820;28;93091;-46
2023/07/07 09:12:02;;;;;;;;;;;21.40;72.70;;;;;;5007670;28;92648;-45
2023/07/07 09:14:27;;;;;;;;;;;21.40;73.00;;;;;;5002952;28;94147;-46
2023/07/07 09:16:55;;;;;;;;;;;21.40;73.00;;;;;;5008132;28;92288;-44
2023/07/07 09:19:26;;;;;;;;;;;21.40;73.10;;;;;;5006259;28;93552;-45
2023/07/07 09:21:56;;;;;;;;;;;21.40;73.20;;;;;;5002668;28;93907;-45
2023/07/07 09:24:25;;;;;;;;;;;21.40;73.00;;;;;;5008025;28;92141;-44
2023/07/07 09:26:52;;;;;;;;;;;21.50;73.00;;;;;;5006178;28;92383;-46
2023/07/07 09:29:20;;;;;;;;;;;21.40;73.10;;;;;;5002329;28;93312;-46
2023/07/07 09:31:46;;;;;;;;;;;21.50;73.20;;;;;;5010891;28;92280;-44
2023/07/07 09:34:12;;;;;;;;;;;21.50;73.10;;;;;;5006712;28;93213;-47
2023/07/07 09:36:56;;;;;;;;;;;21.50;73.20;;;;;;5009588;28;91595;-44
2023/07/07 09:39:22;;;;;;;;;;;21.50;73.20;;;;;;5009114;28;92104;-44
2023/07/07 09:42:08;;;;;;;;;;;21.50;73.20;;;;;;5004468;28;93092;-45
2023/07/07 09:44:45;;;;;;;;;;;21.50;73.40;;;;;;5008256;28;93270;-46
2023/07/07 09:47:29;;;;;;;;;;;21.50;73.20;;;;;;5007875;28;93714;-44
2023/07/07 09:50:01;;;;;;;;;;;21.50;73.20;;;;;;5004925;28;93016;-44
2023/07/07 09:52:38;;;;;;;;;;;21.50;73.20;;;;;;5008077;28;92344;-44
2023/07/07 09:55:27;;;;;;;;;;;21.50;73.30;;;;;;5013296;28;92152;-45
2023/07/07 09:58:11;;;;;;;;;;;21.50;73.10;;;;;;5007432;28;92750;-45
2023/07/07 10:00:37;;;;;;;;;;;21.50;73.10;;;;;;5008201;28;92509;-47
2023/07/07 10:03:12;;;;;;;;;;;21.50;73.10;;;;;;5010254;28;92447;-44
2023/07/07 10:05:38;;;;;;;;;;;21.50;73.10;;;;;;5007128;28;92129;-44
2023/07/07 10:08:05;;;;;;;;;;;21.50;73.20;;;;;;5010982;28;93008;-44
2023/07/07 10:10:31;;;;;;;;;;;21.50;73.30;;;;;;5010940;28;94239;-44
2023/07/07 10:12:57;;;;;;;;;;;21.50;73.20;;;;;;5007106;28;92229;-44
2023/07/07 10:15:22;;;;;;;;;;;21.50;73.30;;;;;;5006755;28;92421;-45
2023/07/07 10:17:53;;;;;;;;;;;21.50;73.30;;;;;;5012012;28;93247;-46
2023/07/07 10:20:18;;;;;;;;;;;21.50;73.20;;;;;;5008371;28;92551;-44
2023/07/07 10:22:44;;;;;;;;;;;21.50;73.10;;;;;;5010907;28;93208;-44
2023/07/07 10:25:13;;;;;;;;;;;21.50;73.10;;;;;;5009017;28;92553;-45
2023/07/07 10:27:46;;;;;;;;;;;21.60;73.10;;;;;;5009313;28;92272;-44
2023/07/07 10:30:12;;;;;;;;;;;21.60;73.00;;;;;;5004698;28;92997;-45
2023/07/07 10:32:37;;;;;;;;;;;21.70;73.00;;;;;;5010086;28;92229;-44
2023/07/07 10:35:05;;;;;;;;;;;21.60;73.00;;;;;;5009813;28;93139;-45
2023/07/07 10:37:32;;;;;;;;;;;21.70;73.00;;;;;;5011309;28;95439;-44
2023/07/07 10:39:58;;;;;;;;;;;21.70;72.90;;;;;;5008031;28;92123;-46
2023/07/07 10:42:25;;;;;;;;;;;21.70;72.90;;;;;;5009827;28;93505;-46
2023/07/07 10:44:51;;;;;;;;;;;21.70;73.00;;;;;;5006491;28;92110;-44
2023/07/07 10:47:18;;;;;;;;;;;21.80;73.10;;;;;;5011041;28;92081;-45
2023/07/07 10:49:44;;;;;;;;;;;21.70;73.30;;;;;;5003213;28;93953;-44
2023/07/07 10:52:21;;;;;;;;;;;21.70;73.20;;;;;;5009948;28;91527;-44
2023/07/07 10:54:56;;;;;;;;;;;21.70;73.30;;;;;;5010971;28;92078;-45
2023/07/07 10:57:21;;;;;;;;;;;21.70;73.20;;;;;;5008182;28;93271;-46
2023/07/07 10:59:52;;;;;;;;;;;21.70;73.10;;;;;;5012443;28;93087;-44
2023/07/07 11:02:24;;;;;;;;;;;21.80;73.00;;;;;;5004120;28;93113;-44
2023/07/07 11:04:49;;;;;;;;;;;21.80;72.90;;;;;;5007522;28;92608;-44
2023/07/07 11:07:24;;;;;;;;;;;21.80;73.10;;;;;;5009448;28;92483;-45
2023/07/07 11:09:49;;;;;;;;;;;21.80;73.00;;;;;;5004518;28;93076;-44
2023/07/07 11:12:20;;;;;;;;;;;21.80;73.10;;;;;;5006199;28;92276;-45
2023/07/07 11:14:46;;;;;;;;;;;21.80;73.20;;;;;;5004264;28;92866;-44
2023/07/07 11:17:14;;;;;;;;;;;21.80;73.10;;;;;;5009451;28;92346;-44
2023/07/07 11:19:59;;;;;;;;;;;21.80;73.10;;;;;;5009184;28;92270;-45
2023/07/07 11:22:43;;;;;;;;;;;21.80;73.00;;;;;;5009407;28;92498;-44
2023/07/07 11:25:27;;;;;;;;;;;21.90;73.00;;;;;;5005093;28;93118;-44
2023/07/07 11:28:13;;;;;;;;;;;21.90;72.90;;;;;;4988384;28;96533;-44
2023/07/07 11:30:54;;;;;;;;;;;21.90;72.90;;;;;;5001426;28;93673;-44
2023/07/07 11:33:29;;;;;;;;;;;21.90;72.90;;;;;;5008202;28;92162;-44
2023/07/07 11:36:05;;;;;;;;;;;22.00;72.80;;;;;;5010000;28;92234;-46
2023/07/07 11:38:40;;;;;;;;;;;22.00;72.80;;;;;;5010008;28;93596;-46
2023/07/07 11:41:21;;;;;;;;;;;22.00;72.80;;;;;;5009226;28;92179;-44
2023/07/07 11:43:58;;;;;;;;;;;22.00;72.90;;;;;;5004564;28;92440;-45
2023/07/07 11:46:43;;;;;;;;;;;22.10;72.80;;;;;;5012486;28;93345;-45
2023/07/07 11:49:18;;;;;;;;;;;22.00;72.80;;;;;;5010265;28;92391;-44
2023/07/07 11:51:43;;;;;;;;;;;22.00;72.80;;;;;;5006603;28;94148;-48
2023/07/07 11:54:28;;;;;;;;;;;22.00;72.80;;;;;;5007407;28;92178;-44
2023/07/07 11:57:12;;;;;;;;;;;22.00;72.90;;;;;;5006946;28;92504;-47
2023/07/07 11:59:45;;;;;;;;;;;22.10;72.90;;;;;;5005833;28;93140;-44
2023/07/07 12:02:17;;;;;;;;;;;22.10;72.80;;;;;;5001928;28;92153;-45
2023/07/07 12:04:44;;;;;;;;;;;22.10;72.80;;;;;;5007879;28;93789;-45
2023/07/07 12:07:13;;;;;;;;;;;22.10;72.90;;;;;;5007581;28;93044;-48
2023/07/07 12:09:48;;;;;;;;;;;22.10;72.90;;;;;;5009445;28;91638;-46
2023/07/07 12:12:14;;;;;;;;;;;22.10;72.90;;;;;;5005754;28;94238;-44
2023/07/07 12:14:59;;;;;;;;;;;22.10;72.90;;;;;;5008225;28;92139;-46
2023/07/07 12:17:39;;;;;;;;;;;22.10;72.80;;;;;;5006370;28;93480;-45
2023/07/07 12:20:10;;;;;;;;;;;22.10;72.70;;;;;;5004127;28;93163;-46
2023/07/07 12:22:40;;;;;;;;;;;22.20;72.80;;;;;;5005624;28;92735;-48
2023/07/07 12:25:16;;;;;;;;;;;22.20;72.80;;;;;;5003095;28;92534;-46
2023/07/07 12:27:43;;;;;;;;;;;22.20;72.70;;;;;;5003700;28;93229;-45
2023/07/07 12:30:18;;;;;;;;;;;22.20;72.70;;;;;;5008615;28;92292;-45
2023/07/07 12:32:43;;;;;;;;;;;22.20;72.70;;;;;;5007090;28;92507;-47
2023/07/07 12:35:14;;;;;;;;;;;22.20;72.60;;;;;;5008437;28;92090;-44
2023/07/07 12:37:40;;;;;;;;;;;22.30;72.50;;;;;;5003574;28;92047;-45
2023/07/07 12:40:08;;;;;;;;;;;22.30;72.50;;;;;;5006552;28;93167;-48
2023/07/07 12:42:35;;;;;;;;;;;22.30;72.50;;;;;;5004253;28;93106;-46
2023/07/07 12:45:09;;;;;;;;;;;22.30;72.40;;;;;;5008820;28;92935;-45
2023/07/07 12:47:41;;;;;;;;;;;22.30;72.40;;;;;;5003968;28;93234;-45
2023/07/07 12:50:23;;;;;;;;;;;22.30;72.30;;;;;;5009095;28;92263;-44
2023/07/07 12:52:49;;;;;;;;;;;22.40;72.20;;;;;;5010012;28;92402;-45
2023/07/07 12:55:28;;;;;;;;;;;22.40;72.00;;;;;;5009023;28;93240;-44
2023/07/07 12:58:16;;;;;;;;;;;22.40;72.00;;;;;;5002431;28;93243;-45
2023/07/07 13:00:43;;;;;;;;;;;22.40;72.00;;;;;;5005713;28;92522;-47
2023/07/07 13:03:08;;;;;;;;;;;22.50;72.00;;;;;;5004894;28;92704;-47
2023/07/07 13:05:34;;;;;;;;;;;22.50;71.90;;;;;;5009006;28;92339;-47
2023/07/07 13:08:00;;;;;;;;;;;22.50;71.80;;;;;;5006784;28;94255;-48
2023/07/07 13:10:33;;;;;;;;;;;22.50;71.80;;;;;;5006706;28;92604;-48
2023/07/07 13:13:16;;;;;;;;;;;22.50;71.80;;;;;;5002427;28;94056;-44
2023/07/07 13:15:42;;;;;;;;;;;22.50;71.80;;;;;;5009262;28;94421;-47
2023/07/07 13:18:07;;;;;;;;;;;22.50;71.70;;;;;;5006716;28;92455;-47
2023/07/07 13:20:35;;;;;;;;;;;22.60;71.80;;;;;;5007743;28;93223;-48
2023/07/07 13:23:04;;;;;;;;;;;22.60;71.80;;;;;;5008483;28;92312;-44
2023/07/07 13:25:33;;;;;;;;;;;22.60;71.70;;;;;;5002438;28;91721;-45
2023/07/07 13:27:59;;;;;;;;;;;22.60;71.50;;;;;;5007785;28;93249;-44
2023/07/07 13:30:31;;;;;;;;;;;22.60;71.30;;;;;;5011554;28;92135;-44
2023/07/07 13:32:56;;;;;;;;;;;22.60;71.20;;;;;;5003884;28;95013;-45
2023/07/07 13:35:23;;;;;;;;;;;22.60;71.10;;;;;;5010446;28;93273;-44
2023/07/07 13:37:48;;;;;;;;;;;22.60;70.90;;;;;;5014215;28;92125;-46
2023/07/07 13:40:15;;;;;;;;;;;22.70;71.00;;;;;;5011835;28;93357;-47
2023/07/07 13:42:44;;;;;;;;;;;22.70;70.90;;;;;;5009446;28;92190;-44
2023/07/07 13:45:16;;;;;;;;;;;22.70;70.80;;;;;;5009361;28;93046;-45
2023/07/07 13:47:43;;;;;;;;;;;22.80;70.70;;;;;;5007857;28;94309;-44
2023/07/07 13:50:28;;;;;;;;;;;22.80;70.50;;;;;;5006466;28;92055;-44
2023/07/07 13:52:58;;;;;;;;;;;22.80;70.40;;;;;;5009375;28;92586;-46
2023/07/07 13:55:28;;;;;;;;;;;22.80;70.50;;;;;;5010645;28;94916;-47
2023/07/07 13:57:54;;;;;;;;;;;22.90;70.40;;;;;;5011048;28;93190;-47
2023/07/07 14:00:25;;;;;;;;;;;22.90;70.30;;;;;;5011545;28;93657;-45
2023/07/07 14:02:51;;;;;;;;;;;23.00;70.20;;;;;;5010173;28;92088;-45
2023/07/07 14:05:18;;;;;;;;;;;23.00;70.20;;;;;;5010447;28;93724;-44
2023/07/07 14:07:43;;;;;;;;;;;22.90;70.20;;;;;;5010635;28;96019;-45
2023/07/07 14:10:18;;;;;;;;;;;23.00;70.30;;;;;;5009867;28;92350;-45
2023/07/07 14:12:43;;;;;;;;;;;23.00;70.50;;;;;;5010098;28;94507;-48
2023/07/07 14:15:12;;;;;;;;;;;22.90;70.50;;;;;;5007826;28;92549;-45
2023/07/07 14:17:39;;;;;;;;;;;22.80;70.60;;;;;;5009867;28;92170;-48
2023/07/07 14:20:10;;;;;;;;;;;23.00;70.70;;;;;;5011064;28;92221;-45
2023/07/07 14:22:36;;;;;;;;;;;22.90;70.60;;;;;;5011174;28;94068;-44
2023/07/07 14:25:02;;;;;;;;;;;22.90;70.60;;;;;;5012220;28;93504;-44